Time;durP1;ratioP1;P1;durP2;ratioP2;P2;SDS_P1;SDS_P2;PMS_P1;PMS_P2;Temp;Humidity;BMP_temperature;BMP_pressure;BME280_temperature;BME280_humidity;BME280_pressure;Samples;Min_cycle;Max_cycle;Signal;HPM_P1;HPM_P2
2023/03/10 00:01:11;;;;;;;3.67;2.93;;;20.10;56.40;;;;;;4996106;28;20446;-93
2023/03/10 00:03:38;;;;;;;3.40;3.10;;;20.10;56.30;;;;;;4996110;28;20451;-90
2023/03/10 00:06:06;;;;;;;4.07;3.60;;;20.10;56.40;;;;;;4996471;28;20962;-90
2023/03/10 00:08:33;;;;;;;3.40;3.10;;;20.10;56.30;;;;;;4996277;28;20442;-89
2023/03/10 00:11:00;;;;;;;3.40;3.10;;;20.10;56.30;;;;;;4996352;28;20464;-90
2023/03/10 00:13:26;;;;;;;2.97;2.77;;;20.10;56.40;;;;;;4996174;28;20471;-89
2023/03/10 00:15:55;;;;;;;2.97;2.77;;;20.30;56.50;;;;;;4995895;28;20986;-94
2023/03/10 00:18:21;;;;;;;3.00;2.80;;;20.10;56.30;;;;;;4996181;28;20485;-94
2023/03/10 00:20:51;;;;;;;3.17;2.73;;;20.10;56.30;;;;;;4996210;28;20452;-89
2023/03/10 00:23:18;;;;;;;3.23;3.03;;;20.10;56.30;;;;;;4996267;28;20447;-92
2023/03/10 00:25:45;;;;;;;3.57;3.27;;;20.10;56.30;;;;;;4996144;28;20456;-91
2023/03/10 00:28:11;;;;;;;3.20;2.90;;;20.10;56.30;;;;;;4993874;28;20495;-92
2023/03/10 00:30:38;;;;;;;2.73;2.53;;;20.20;56.30;;;;;;4995477;28;20510;-89
2023/03/10 00:33:06;;;;;;;2.80;2.60;;;20.10;56.30;;;;;;4995840;28;20450;-90
2023/03/10 00:35:33;;;;;;;3.10;2.90;;;20.10;56.30;;;;;;4995763;28;20450;-94
2023/03/10 00:38:01;;;;;;;2.70;2.37;;;20.10;56.30;;;;;;4995601;28;20484;-91
2023/03/10 00:40:28;;;;;;;2.93;2.73;;;20.20;56.40;;;;;;4995275;28;20464;-91
2023/03/10 00:42:54;;;;;;;2.67;2.43;;;20.10;56.30;;;;;;4995740;28;20468;-91
2023/03/10 00:45:21;;;;;;;2.87;2.67;;;20.10;56.30;;;;;;4994571;28;20467;-89
2023/03/10 00:47:48;;;;;;;3.00;2.80;;;20.10;56.30;;;;;;4995600;28;20453;-93
2023/03/10 00:50:17;;;;;;;2.67;2.47;;;20.10;56.30;;;;;;4995553;28;20538;-94
2023/03/10 00:52:44;;;;;;;2.77;2.57;;;20.10;56.30;;;;;;4995421;28;20455;-90
2023/03/10 00:55:12;;;;;;;2.80;2.27;;;20.20;56.40;;;;;;4995335;28;20503;-90
2023/03/10 00:57:39;;;;;;;2.73;2.53;;;20.10;56.30;;;;;;4995206;28;20476;-93
2023/03/10 01:00:08;;;;;;;2.40;2.30;;;20.10;56.30;;;;;;4995393;28;20931;-94
2023/03/10 01:02:35;;;;;;;2.80;2.53;;;20.00;56.30;;;;;;4995355;28;20515;-90
2023/03/10 01:05:02;;;;;;;2.80;2.50;;;20.10;56.30;;;;;;4994781;28;20443;-92
2023/03/10 01:07:30;;;;;;;2.67;2.17;;;20.10;56.30;;;;;;4995602;28;20523;-90
2023/03/10 01:09:57;;;;;;;2.60;2.40;;;20.10;56.40;;;;;;4996136;28;20474;-94
2023/03/10 01:12:23;;;;;;;2.33;2.13;;;20.10;56.30;;;;;;4994978;28;20955;-91
2023/03/10 01:14:50;;;;;;;3.17;2.87;;;20.00;56.20;;;;;;4995162;28;20471;-94
2023/03/10 01:17:17;;;;;;;2.43;2.20;;;20.10;56.30;;;;;;4994975;28;20476;-94
2023/03/10 01:19:44;;;;;;;2.70;2.50;;;20.10;56.30;;;;;;4994857;28;20443;-93
2023/03/10 01:22:10;;;;;;;3.07;2.70;;;20.10;56.40;;;;;;4995066;28;20444;-93
2023/03/10 01:24:38;;;;;;;2.70;2.50;;;20.00;56.30;;;;;;4994965;28;20989;-91
2023/03/10 01:27:05;;;;;;;3.10;2.80;;;20.00;56.20;;;;;;4994697;28;20452;-90
2023/03/10 01:29:32;;;;;;;2.30;2.17;;;20.00;56.20;;;;;;4994977;28;20443;-92
2023/03/10 01:31:59;;;;;;;2.40;2.20;;;20.10;56.30;;;;;;4994689;28;20447;-90
2023/03/10 01:34:26;;;;;;;2.37;2.17;;;20.00;56.20;;;;;;4995313;28;20444;-94
2023/03/10 01:36:53;;;;;;;2.40;2.20;;;20.00;56.20;;;;;;4994733;28;20543;-91
2023/03/10 01:39:19;;;;;;;2.10;2.00;;;20.00;56.20;;;;;;4994399;28;20472;-93
2023/03/10 01:41:48;;;;;;;2.30;1.93;;;20.00;56.20;;;;;;4994418;28;20542;-94
2023/03/10 01:44:17;;;;;;;2.43;2.23;;;20.00;56.20;;;;;;4995144;28;20436;-94
2023/03/10 01:46:49;;;;;;;3.20;2.70;;;20.00;56.20;;;;;;4994427;28;20459;-95
2023/03/10 01:49:29;;;;;;;2.03;1.93;;;20.00;56.20;;;;;;4995246;28;21010;-95
2023/03/10 01:52:02;;;;;;;2.53;2.33;;;20.00;56.20;;;;;;4994429;28;20482;-92
2023/03/10 01:54:33;;;;;;;2.10;2.00;;;20.00;56.20;;;;;;4994805;28;20543;-90
2023/03/10 01:57:02;;;;;;;2.20;2.00;;;20.00;56.20;;;;;;4994231;28;20444;-93
2023/03/10 01:59:30;;;;;;;1.73;1.63;;;20.00;56.20;;;;;;4994439;28;20471;-90
2023/03/10 02:01:58;;;;;;;2.60;2.40;;;20.00;56.30;;;;;;4980106;28;20443;-93
2023/03/10 02:04:35;;;;;;;2.60;2.40;;;20.00;56.20;;;;;;4994772;28;20440;-94
2023/03/10 02:07:04;;;;;;;2.17;1.97;;;20.00;56.30;;;;;;4994472;28;20799;-93
2023/03/10 02:09:34;;;;;;;2.13;1.93;;;20.00;56.20;;;;;;4994401;28;20471;-94
2023/03/10 02:12:03;;;;;;;2.40;2.20;;;20.00;56.20;;;;;;4994056;28;20452;-93
2023/03/10 02:14:31;;;;;;;2.00;1.90;;;20.00;56.20;;;;;;4994266;28;20484;-94
2023/03/10 02:16:58;;;;;;;2.30;2.10;;;20.00;56.20;;;;;;4994420;28;20551;-91
2023/03/10 02:19:41;;;;;;;2.00;1.80;;;20.00;56.30;;;;;;4993943;28;20478;-94
2023/03/10 02:22:11;;;;;;;3.50;2.53;;;20.00;56.20;;;;;;4993470;28;20454;-92
2023/03/10 02:24:45;;;;;;;1.97;1.87;;;20.00;56.20;;;;;;4994694;28;20443;-95
2023/03/10 02:27:19;;;;;;;2.00;1.80;;;20.00;56.20;;;;;;4993621;28;20446;-94
2023/03/10 02:29:50;;;;;;;2.40;2.20;;;20.00;56.20;;;;;;4994295;28;20458;-94
2023/03/10 02:32:18;;;;;;;2.03;1.83;;;20.00;56.20;;;;;;4993911;28;20450;-93
2023/03/10 02:34:45;;;;;;;1.93;1.73;;;19.90;56.10;;;;;;4994248;28;20441;-95
2023/03/10 02:37:22;;;;;;;1.63;1.53;;;19.90;56.10;;;;;;4993948;28;20456;-92
2023/03/10 02:39:49;;;;;;;1.93;1.73;;;20.00;56.20;;;;;;4993828;28;20876;-89
2023/03/10 02:42:18;;;;;;;2.00;1.80;;;19.90;56.10;;;;;;4993955;28;20447;-94
2023/03/10 02:44:46;;;;;;;1.70;1.60;;;20.00;56.20;;;;;;4993990;28;20518;-92
2023/03/10 02:47:13;;;;;;;1.80;1.70;;;20.00;56.20;;;;;;4994079;28;20538;-94
2023/03/10 02:49:40;;;;;;;1.53;1.43;;;19.90;56.10;;;;;;4994379;28;20538;-94
2023/03/10 02:52:11;;;;;;;1.67;1.57;;;19.90;56.10;;;;;;4993394;28;20448;-94
2023/03/10 02:54:38;;;;;;;1.93;1.73;;;20.10;56.30;;;;;;4993515;28;20531;-89
2023/03/10 02:57:05;;;;;;;1.93;1.73;;;19.90;56.10;;;;;;4993489;28;20990;-94
2023/03/10 02:59:33;;;;;;;1.67;1.57;;;19.90;56.70;;;;;;4993396;28;20494;-92
2023/03/10 03:02:00;;;;;;;2.07;1.80;;;19.90;56.10;;;;;;4993834;28;20464;-91
2023/03/10 03:04:27;;;;;;;2.17;1.87;;;19.90;56.00;;;;;;4994126;28;20452;-91
2023/03/10 03:06:54;;;;;;;1.67;1.57;;;19.90;56.10;;;;;;4993924;28;20889;-93
2023/03/10 03:09:21;;;;;;;1.80;1.70;;;19.90;56.10;;;;;;4993677;28;20542;-88
2023/03/10 03:11:48;;;;;;;2.30;2.10;;;19.90;56.10;;;;;;4994095;28;20444;-89
2023/03/10 03:14:15;;;;;;;1.63;1.53;;;19.90;56.00;;;;;;4993623;28;20446;-89
2023/03/10 03:16:43;;;;;;;1.70;1.57;;;19.90;56.10;;;;;;4993673;28;20942;-93
2023/03/10 03:19:09;;;;;;;1.80;1.70;;;19.90;56.10;;;;;;4993730;28;20496;-92
2023/03/10 03:21:36;;;;;;;1.97;1.77;;;19.90;56.00;;;;;;4994041;28;20495;-92
2023/03/10 03:24:03;;;;;;;1.80;1.67;;;19.90;56.10;;;;;;4993851;28;20454;-94
2023/03/10 03:26:30;;;;;;;1.83;1.73;;;19.90;56.10;;;;;;4993934;28;20487;-93
2023/03/10 03:28:57;;;;;;;3.07;2.17;;;19.90;56.10;;;;;;4993841;28;20466;-89
2023/03/10 03:31:25;;;;;;;1.60;1.50;;;19.90;56.60;;;;;;4993086;28;20555;-93
2023/03/10 03:33:53;;;;;;;1.67;1.50;;;19.90;56.10;;;;;;4993179;28;20450;-92
2023/03/10 03:36:20;;;;;;;1.80;1.70;;;19.90;56.00;;;;;;4993658;28;20436;-89
2023/03/10 03:38:47;;;;;;;1.57;1.47;;;19.90;56.10;;;;;;4993231;28;20917;-92
2023/03/10 03:41:14;;;;;;;2.07;1.57;;;19.90;56.00;;;;;;4993542;28;20447;-93
2023/03/10 03:43:41;;;;;;;2.20;2.00;;;19.90;56.00;;;;;;4993129;28;20527;-89
2023/03/10 03:46:08;;;;;;;1.40;1.30;;;19.90;56.00;;;;;;4993745;28;20477;-90
2023/03/10 03:48:34;;;;;;;1.97;1.60;;;19.90;56.00;;;;;;4993572;28;20467;-89
2023/03/10 03:51:03;;;;;;;1.73;1.63;;;19.90;56.00;;;;;;4993649;28;20527;-90
2023/03/10 03:53:32;;;;;;;1.80;1.70;;;19.90;56.00;;;;;;4992535;28;20427;-90
2023/03/10 03:55:59;;;;;;;1.57;1.47;;;19.90;56.00;;;;;;4993009;28;20448;-90
2023/03/10 03:58:26;;;;;;;1.60;1.50;;;19.90;56.00;;;;;;4992570;28;20519;-90
2023/03/10 04:00:53;;;;;;;1.40;1.30;;;19.90;55.90;;;;;;4993017;28;20447;-90
2023/03/10 04:03:20;;;;;;;1.60;1.50;;;19.90;56.00;;;;;;4994202;28;20807;-93
2023/03/10 04:05:46;;;;;;;1.20;1.10;;;19.90;56.00;;;;;;4996743;28;20442;-90
2023/03/10 04:08:15;;;;;;;1.60;1.40;;;19.90;56.10;;;;;;4996493;28;20471;-93
2023/03/10 04:10:41;;;;;;;1.30;1.20;;;19.90;56.00;;;;;;4996542;28;20451;-90
2023/03/10 04:13:08;;;;;;;1.53;1.43;;;19.90;56.00;;;;;;4990375;28;20465;-89
2023/03/10 04:15:35;;;;;;;1.30;1.20;;;19.90;56.00;;;;;;4996316;28;20519;-93
2023/03/10 04:18:02;;;;;;;1.50;1.33;;;19.90;56.00;;;;;;4996465;28;20479;-92
2023/03/10 04:20:29;;;;;;;1.30;1.20;;;19.90;56.00;;;;;;4995859;28;20558;-93
2023/03/10 04:22:56;;;;;;;1.77;1.53;;;19.90;56.00;;;;;;4996400;28;20456;-88
2023/03/10 04:25:24;;;;;;;1.50;1.30;;;19.90;56.00;;;;;;4996475;28;20447;-89
2023/03/10 04:27:50;;;;;;;1.20;1.10;;;19.90;56.00;;;;;;4995657;28;20444;-91
2023/03/10 04:30:17;;;;;;;1.47;1.23;;;19.90;56.00;;;;;;4996128;28;20448;-91
2023/03/10 04:32:44;;;;;;;1.43;1.33;;;20.00;56.10;;;;;;4995817;28;20466;-91
2023/03/10 04:35:13;;;;;;;3.20;1.40;;;19.90;56.00;;;;;;4995934;28;20450;-91
2023/03/10 04:37:40;;;;;;;1.70;1.60;;;19.90;56.00;;;;;;4995997;28;20468;-95
2023/03/10 04:40:11;;;;;;;1.87;1.47;;;19.90;56.00;;;;;;4995834;28;20978;-92
2023/03/10 04:42:39;;;;;;;1.30;1.10;;;19.80;55.90;;;;;;4995509;28;20466;-94
2023/03/10 04:45:07;;;;;;;1.20;1.10;;;19.90;56.00;;;;;;4996196;28;20970;-89
2023/03/10 04:47:34;;;;;;;1.60;1.20;;;19.90;56.00;;;;;;4995483;28;20445;-91
2023/03/10 04:50:01;;;;;;;1.17;1.07;;;20.00;56.20;;;;;;4996165;28;20443;-89
2023/03/10 04:52:28;;;;;;;1.40;1.30;;;19.80;56.00;;;;;;4995498;28;20943;-92
2023/03/10 04:54:54;;;;;;;1.57;1.20;;;19.80;55.90;;;;;;4995531;28;20454;-94
2023/03/10 04:57:23;;;;;;;1.30;1.20;;;19.80;56.00;;;;;;4995651;28;20449;-93
2023/03/10 04:59:51;;;;;;;1.93;1.30;;;19.80;55.90;;;;;;4995365;28;20479;-93
2023/03/10 05:02:18;;;;;;;1.60;1.40;;;19.80;55.90;;;;;;4995857;28;20449;-90
2023/03/10 05:04:45;;;;;;;1.60;1.50;;;19.80;56.00;;;;;;4995604;28;20455;-94
2023/03/10 05:07:12;;;;;;;1.37;1.27;;;19.80;55.80;;;;;;4995611;28;20460;-90
2023/03/10 05:09:39;;;;;;;1.10;1.00;;;19.80;55.90;;;;;;4995852;28;20448;-92
2023/03/10 05:12:06;;;;;;;1.30;1.20;;;19.80;55.90;;;;;;4995463;28;20924;-93
2023/03/10 05:14:33;;;;;;;1.23;1.00;;;19.80;56.00;;;;;;4995264;28;20866;-93
2023/03/10 05:17:01;;;;;;;1.50;1.40;;;19.80;56.00;;;;;;4995428;28;20916;-92
2023/03/10 05:19:28;;;;;;;1.50;1.37;;;20.00;56.10;;;;;;4995160;28;20897;-89
2023/03/10 05:21:55;;;;;;;1.37;1.27;;;19.80;55.90;;;;;;4995709;28;20452;-93
2023/03/10 05:24:22;;;;;;;1.43;1.30;;;19.80;55.90;;;;;;4995400;28;20444;-90
2023/03/10 05:26:48;;;;;;;1.53;1.43;;;19.80;55.90;;;;;;4995537;28;20444;-92
2023/03/10 05:29:15;;;;;;;1.50;1.40;;;19.80;55.90;;;;;;4995420;28;20443;-93
2023/03/10 05:31:42;;;;;;;1.50;1.40;;;19.80;55.90;;;;;;4995309;28;20534;-88
2023/03/10 05:34:10;;;;;;;1.40;1.20;;;19.80;55.80;;;;;;4995445;28;20448;-89
2023/03/10 05:36:37;;;;;;;1.50;1.20;;;19.80;56.00;;;;;;4995016;28;20555;-89
2023/03/10 05:39:05;;;;;;;1.60;1.00;;;19.80;55.90;;;;;;4995004;28;21074;-91
2023/03/10 05:41:32;;;;;;;1.50;1.37;;;19.80;55.80;;;;;;4994866;28;20452;-88
2023/03/10 05:43:59;;;;;;;1.40;1.23;;;19.80;55.90;;;;;;4995257;28;20455;-90
2023/03/10 05:46:26;;;;;;;1.60;1.07;;;19.80;55.90;;;;;;4994947;28;20455;-89
2023/03/10 05:48:53;;;;;;;1.20;1.00;;;19.80;55.90;;;;;;4994614;28;20534;-94
2023/03/10 05:51:21;;;;;;;1.20;1.10;;;19.80;55.90;;;;;;4994795;28;20446;-94
2023/03/10 05:53:48;;;;;;;1.30;1.20;;;19.80;55.90;;;;;;4995055;28;20455;-91
2023/03/10 05:56:17;;;;;;;1.70;1.20;;;19.80;55.80;;;;;;4994768;28;20488;-94
2023/03/10 05:58:45;;;;;;;1.40;1.20;;;19.80;55.90;;;;;;4994532;28;20546;-90
2023/03/10 06:01:13;;;;;;;1.40;1.23;;;19.80;55.90;;;;;;4994945;28;20483;-88
2023/03/10 06:03:39;;;;;;;1.20;1.10;;;19.80;56.00;;;;;;4994002;28;20539;-88
2023/03/10 06:06:07;;;;;;;1.60;1.00;;;19.80;56.00;;;;;;4994104;28;20555;-88
2023/03/10 06:08:35;;;;;;;1.27;1.10;;;19.80;56.00;;;;;;4987997;28;20525;-93
2023/03/10 06:11:02;;;;;;;1.40;1.20;;;19.80;55.80;;;;;;4994769;28;20553;-94
2023/03/10 06:13:30;;;;;;;1.57;1.20;;;19.80;55.90;;;;;;4992996;28;20478;-89
2023/03/10 06:15:58;;;;;;;1.10;1.00;;;19.80;55.90;;;;;;4993952;28;20480;-88
2023/03/10 06:18:27;;;;;;;1.13;0.93;;;19.80;55.90;;;;;;4988298;28;20483;-88
2023/03/10 06:20:54;;;;;;;1.10;1.00;;;19.80;55.90;;;;;;4994484;28;20535;-89
2023/03/10 06:23:22;;;;;;;1.20;0.90;;;19.80;55.90;;;;;;4994551;28;20943;-90
2023/03/10 06:25:59;;;;;;;1.07;0.97;;;19.80;55.90;;;;;;4989901;28;20447;-93
2023/03/10 06:28:31;;;;;;;1.20;0.90;;;19.80;55.90;;;;;;4977007;28;20441;-89
2023/03/10 06:30:58;;;;;;;1.30;0.90;;;19.80;55.90;;;;;;4975153;28;20498;-89
2023/03/10 06:33:26;;;;;;;1.60;1.00;;;19.70;55.80;;;;;;4991811;28;20459;-94
2023/03/10 06:35:53;;;;;;;1.30;1.10;;;19.70;55.90;;;;;;4994552;28;20459;-96
2023/03/10 06:38:20;;;;;;;1.30;1.00;;;19.70;55.80;;;;;;4994627;28;20459;-94
2023/03/10 06:40:47;;;;;;;1.20;1.00;;;19.90;56.00;;;;;;4994146;28;20913;-94
2023/03/10 06:43:15;;;;;;;1.30;1.10;;;19.70;55.90;;;;;;4995034;28;20479;-96
2023/03/10 06:45:42;;;;;;;1.93;1.40;;;19.70;56.00;;;;;;4994943;28;20498;-94
2023/03/10 06:48:09;;;;;;;1.30;1.20;;;19.70;56.00;;;;;;4995061;28;20484;-95
2023/03/10 06:50:36;;;;;;;2.13;1.30;;;19.80;56.00;;;;;;4994670;28;20448;-93
2023/03/10 06:53:03;;;;;;;4.83;1.50;;;19.80;56.10;;;;;;4994712;28;20538;-91
2023/03/10 06:55:30;;;;;;;2.90;1.60;;;19.80;56.10;;;;;;4994911;28;20450;-94
2023/03/10 06:57:57;;;;;;;2.93;1.43;;;19.80;56.10;;;;;;4994764;28;20440;-95
2023/03/10 07:00:25;;;;;;;1.63;1.53;;;19.80;56.20;;;;;;4994239;28;20486;-94
2023/03/10 07:02:52;;;;;;;1.57;1.47;;;19.80;56.20;;;;;;4994594;28;20448;-94
2023/03/10 07:05:21;;;;;;;2.53;2.10;;;19.80;56.10;;;;;;4994625;28;20470;-90
2023/03/10 07:07:49;;;;;;;2.07;1.60;;;19.80;56.20;;;;;;4994351;28;20462;-94
2023/03/10 07:10:16;;;;;;;1.70;1.60;;;20.00;56.30;;;;;;4994852;28;20484;-95
2023/03/10 07:12:44;;;;;;;1.60;1.50;;;19.80;56.20;;;;;;4994745;28;20452;-91
2023/03/10 07:15:12;;;;;;;1.93;1.57;;;19.80;56.20;;;;;;4994764;28;20816;-92
2023/03/10 07:17:40;;;;;;;2.50;1.87;;;19.80;56.20;;;;;;4994873;28;20455;-92
2023/03/10 07:20:08;;;;;;;2.40;1.70;;;19.90;56.20;;;;;;4994517;28;20993;-93
2023/03/10 07:22:35;;;;;;;2.17;1.50;;;19.90;56.40;;;;;;4994624;28;20447;-95
2023/03/10 07:25:02;;;;;;;1.67;1.50;;;19.90;56.40;;;;;;4994087;28;20489;-91
2023/03/10 07:27:29;;;;;;;1.77;1.53;;;19.90;56.40;;;;;;4994308;28;20444;-94
2023/03/10 07:29:56;;;;;;;1.83;1.40;;;19.90;56.50;;;;;;4994571;28;20857;-93
2023/03/10 07:32:22;;;;;;;2.07;1.80;;;20.00;56.60;;;;;;4994955;28;20447;-93
2023/03/10 07:34:52;;;;;;;2.37;1.50;;;19.90;56.60;;;;;;4993723;28;20450;-92
2023/03/10 07:37:19;;;;;;;2.80;1.77;;;19.80;56.60;;;;;;4995422;28;20440;-92
2023/03/10 07:39:46;;;;;;;1.40;1.20;;;19.80;56.70;;;;;;4998341;28;20580;-91
2023/03/10 07:42:12;;;;;;;1.43;1.20;;;19.80;56.70;;;;;;4998007;28;20451;-94
2023/03/10 07:44:39;;;;;;;1.50;1.40;;;19.80;56.70;;;;;;4997656;28;20446;-93
2023/03/10 07:47:06;;;;;;;2.73;1.60;;;19.80;56.70;;;;;;4997537;28;20448;-93
2023/03/10 07:49:33;;;;;;;2.60;1.50;;;19.80;56.80;;;;;;4997786;28;20474;-92
2023/03/10 07:52:01;;;;;;;2.90;1.30;;;19.90;56.70;;;;;;4997476;28;20452;-93
2023/03/10 07:54:29;;;;;;;1.70;1.60;;;19.80;56.70;;;;;;5000288;28;20527;-96
2023/03/10 07:56:55;;;;;;;1.30;1.20;;;19.80;56.80;;;;;;5012151;28;20436;-94
2023/03/10 07:59:25;;;;;;;1.30;1.20;;;19.80;56.70;;;;;;5012386;28;20479;-96
2023/03/10 08:01:53;;;;;;;1.30;1.10;;;19.80;56.80;;;;;;5013362;28;20495;-96
2023/03/10 08:04:23;;;;;;;2.30;1.57;;;19.80;56.80;;;;;;5009763;28;20448;-94
2023/03/10 08:06:50;;;;;;;1.57;1.43;;;19.80;56.80;;;;;;4995038;28;20467;-96
2023/03/10 08:09:19;;;;;;;2.63;1.70;;;19.90;56.90;;;;;;5019293;23;20467;-94
2023/03/10 08:11:46;;;;;;;1.70;1.33;;;19.90;56.80;;;;;;5010079;28;20491;-94
2023/03/10 08:14:14;;;;;;;1.73;1.57;;;19.90;56.90;;;;;;5009690;28;20478;-95
2023/03/10 08:16:41;;;;;;;1.53;1.43;;;19.90;56.90;;;;;;5009158;28;20508;-96
2023/03/10 08:19:08;;;;;;;2.43;1.57;;;19.90;56.80;;;;;;5009500;28;20452;-96
2023/03/10 08:21:35;;;;;;;3.50;1.37;;;19.90;56.80;;;;;;5009638;28;20489;-96
2023/03/10 08:24:02;;;;;;;1.83;1.30;;;19.80;56.70;;;;;;5011168;28;21000;-95
2023/03/10 08:26:31;;;;;;;1.60;1.10;;;19.90;56.80;;;;;;5010883;28;20510;-95
2023/03/10 08:29:00;;;;;;;2.47;1.53;;;19.90;56.80;;;;;;5010460;28;20947;-95
2023/03/10 08:31:42;;;;;;;1.40;1.17;;;19.90;56.80;;;;;;5011715;28;20451;-96
2023/03/10 08:34:10;;;;;;;1.70;1.60;;;19.90;56.70;;;;;;5008599;28;20507;-95
2023/03/10 08:36:39;;;;;;;2.40;1.10;;;19.90;56.80;;;;;;4994460;28;20464;-96
2023/03/10 08:39:08;;;;;;;1.67;1.20;;;19.90;56.80;;;;;;4988924;28;20472;-94
2023/03/10 08:41:40;;;;;;;1.80;1.40;;;19.90;56.80;;;;;;4989645;28;20457;-96
2023/03/10 08:44:10;;;;;;;1.53;1.43;;;19.90;56.70;;;;;;4990610;28;20975;-95
2023/03/10 08:46:38;;;;;;;2.17;1.30;;;19.90;56.70;;;;;;4987423;28;20450;-95
2023/03/10 08:49:05;;;;;;;1.73;1.43;;;19.90;56.70;;;;;;4977854;28;20446;-94
2023/03/10 08:51:33;;;;;;;2.73;1.50;;;19.80;56.70;;;;;;4978451;28;20543;-93
2023/03/10 08:54:01;;;;;;;1.80;1.20;;;19.80;56.60;;;;;;4978532;28;21016;-93
2023/03/10 08:56:34;;;;;;;1.30;1.13;;;19.80;56.70;;;;;;4977645;28;20448;-93
2023/03/10 08:59:02;;;;;;;1.80;1.47;;;19.80;56.70;;;;;;4978107;28;20863;-92
2023/03/10 09:01:31;;;;;;;1.40;1.30;;;19.80;56.70;;;;;;4977159;28;20501;-93
2023/03/10 09:03:59;;;;;;;1.97;1.30;;;19.80;56.70;;;;;;4978103;28;20870;-93
2023/03/10 09:06:28;;;;;;;1.40;1.10;;;19.80;56.70;;;;;;4977913;28;20472;-93
2023/03/10 09:08:55;;;;;;;1.40;1.13;;;19.80;56.60;;;;;;4977457;28;20507;-93
2023/03/10 09:11:24;;;;;;;1.90;1.10;;;19.80;56.60;;;;;;4977269;28;20568;-93
2023/03/10 09:13:52;;;;;;;1.30;1.00;;;19.80;56.70;;;;;;4976570;28;20480;-93
2023/03/10 09:16:21;;;;;;;2.13;1.13;;;19.80;56.70;;;;;;4978271;28;20488;-95
2023/03/10 09:18:48;;;;;;;1.30;1.07;;;19.80;56.70;;;;;;4979764;28;20824;-90
2023/03/10 09:21:18;;;;;;;3.00;1.40;;;19.90;56.70;;;;;;4981977;28;20849;-92
2023/03/10 09:23:53;;;;;;;3.33;1.20;;;19.80;56.60;;;;;;4980626;28;20536;-93
2023/03/10 09:26:21;;;;;;;2.60;1.20;;;19.80;56.20;;;;;;4981424;28;20436;-94
2023/03/10 09:28:49;;;;;;;4.80;1.10;;;19.80;56.20;;;;;;4981828;28;20531;-90
2023/03/10 09:31:19;;;;;;;1.50;1.00;;;19.70;56.10;;;;;;4985129;28;20452;-91
2023/03/10 09:33:52;;;;;;;10.43;1.83;;;19.70;56.20;;;;;;4987251;28;20501;-96
2023/03/10 09:36:21;;;;;;;3.10;1.30;;;19.80;56.40;;;;;;4993414;28;20473;-96
2023/03/10 09:42:10;;;;;;;5.37;1.33;;;19.70;56.20;;;;;;4989164;28;20487;-96
2023/03/10 09:44:42;;;;;;;5.23;1.60;;;19.70;56.20;;;;;;4982376;28;20460;-90
2023/03/10 09:47:35;;;;;;;3.63;1.27;;;19.70;56.20;;;;;;4980108;28;20451;-91
2023/03/10 09:50:29;;;;;;;2.70;1.40;;;19.70;56.10;;;;;;4988926;28;20460;-91
2023/03/10 09:53:01;;;;;;;9.00;1.83;;;19.80;56.20;;;;;;4992175;28;20437;-91
2023/03/10 09:55:34;;;;;;;6.70;1.33;;;19.80;56.20;;;;;;4981693;28;20860;-91
2023/03/10 09:58:01;;;;;;;5.23;1.27;;;19.80;56.20;;;;;;4980073;28;20508;-91
2023/03/10 10:00:34;;;;;;;3.53;1.77;;;19.80;56.50;;;;;;4981059;28;20552;-90
2023/03/10 10:03:06;;;;;;;19.10;6.60;;;19.80;59.70;;;;;;4978654;28;20445;-91
2023/03/10 10:05:42;;;;;;;19.40;5.30;;;19.80;62.40;;;;;;4982489;28;20801;-88
2023/03/10 10:08:20;;;;;;;21.10;5.70;;;19.70;61.30;;;;;;4980278;28;20464;-91
2023/03/10 10:10:51;;;;;;;27.37;7.03;;;19.70;60.40;;;;;;4979428;28;20485;-91
